KGGW/GGW METAR and TAF weather

Enter ICAO airport designator
Station Type Date Time Source
KGGW METAR 2019/04/26 03:53 UTC NOAA

KGGW 260353Z AUTO 10003KT 10SM CLR 07/M12 A3016 RMK AO2 SLP225 T00721122


Station Type Date Time Source
KGGW Decoded METAR 2019/04/26 03:53 UTC NOAA

GLASGOW INTERNATIONAL AIRPORT , MT, United States (KGGW) 48-13N 106-37W 693M
Apr 25, 2019 - 11:53 PM EDT / 2019.04.26 0353 UTC
Wind: from the E (100 degrees) at 3 MPH (3 KT):0
Visibility: 10 mile(s):0
Sky conditions: clear
Temperature: 45.0 F (7.2 C)
Dew Point: 10.0 F (-12.2 C)
Relative Humidity: 23%
Pressure (altimeter): 30.16 in. Hg (1021 hPa)
ob: KGGW 260353Z AUTO 10003KT 10SM CLR 07/M12 A3016 RMK AO2 SLP225 T00721122
cycle: 4

Station Type Date Time Source
KGGW TAF 2019/04/25 18:22 UTC NOAA

TAF KGGW 251720Z 2518/2618 31016KT P6SM FEW140
FM260100 34007KT P6SM SKC
FM260800 10007KT P6SM BKN160
FM261400 12012KT P6SM OVC090

Example: see airport list